Youngstown, Illinois
Current Conditions -  °F | °C
As of 9:55 AM on Sunday 21 Dec 2014 (Local Time) from KMQB Reporting Station
Haze Haze  
Wind Chill: 30°   Ceiling: 2400
Heat Index: 38°   Visibility: 5mi
Dew Point: 35°   Wind: 12mph
Humidity: 91%   Direction: 160°SSE
Pressure: 30.16"   Gusts: NA
Location:  40.7092°N, 90.6155°W
Report Text: KMQB 211555Z AUTO 16010KT 5SM BR OVC024 03/02 A3016 RMK AO2 T00310018
Loading
Personal Weather Stations






























Interactive Weather Map New forecast layout! Learn more

10-Day Weather Forecast

Advertisements
Track Severe Weather on mobile